Time;durP1;ratioP1;P1;durP2;ratioP2;P2;SDS_P1;SDS_P2;PMS_P1;PMS_P2;Temp;Humidity;BMP_temperature;BMP_pressure;BME280_temperature;BME280_humidity;BME280_pressure;Samples;Min_cycle;Max_cycle;Signal;HPM_P1;HPM_P2
2022/07/31 00:00:41;;;;;;;;;;;;;;;22.70;50.18;98573.70;1676581;84;20138;-73
2022/07/31 00:03:07;;;;;;;;;;;;;;;22.68;50.24;98568.27;1676714;84;20119;-72
2022/07/31 00:05:33;;;;;;;;;;;;;;;22.67;50.31;98571.52;1676641;84;21578;-73
2022/07/31 00:08:01;;;;;;;;;;;;;;;22.65;50.41;98570.98;1676577;84;20095;-73
2022/07/31 00:10:28;;;;;;;;;;;;;;;22.63;50.49;98577.19;1676580;84;20420;-72
2022/07/31 00:12:55;;;;;;;;;;;;;;;22.60;50.62;98566.06;1676606;84;20156;-73
2022/07/31 00:15:21;;;;;;;;;;;;;;;22.58;50.70;98566.85;1676640;84;20091;-72
2022/07/31 00:17:48;;;;;;;;;;;;;;;22.56;50.78;98559.54;1675655;84;21620;-73
2022/07/31 00:20:15;;;;;;;;;;;;;;;22.53;50.88;98566.84;1657401;84;20099;-72
2022/07/31 00:22:43;;;;;;;;;;;;;;;22.52;50.79;98570.66;1676673;84;20099;-72
2022/07/31 00:25:11;;;;;;;;;;;;;;;22.54;50.72;98553.58;1676559;84;20099;-72
2022/07/31 00:27:38;;;;;;;;;;;;;;;22.57;50.60;98556.58;1676559;84;20091;-73
2022/07/31 00:30:05;;;;;;;;;;;;;;;22.57;50.62;98546.27;1676471;84;21157;-72
2022/07/31 00:32:32;;;;;;;;;;;;;;;22.58;50.64;98556.01;1676532;84;20175;-72
2022/07/31 00:34:58;;;;;;;;;;;;;;;22.56;50.62;98554.12;1676378;84;20152;-72
2022/07/31 00:37:24;;;;;;;;;;;;;;;22.55;50.72;98556.58;1676603;84;20095;-72
2022/07/31 00:39:51;;;;;;;;;;;;;;;22.55;50.69;98560.64;1676525;84;20511;-72
2022/07/31 00:42:19;;;;;;;;;;;;;;;22.57;50.71;98558.47;1676618;84;20673;-72
2022/07/31 00:44:46;;;;;;;;;;;;;;;22.59;50.79;98557.65;1676493;84;20465;-73
2022/07/31 00:47:12;;;;;;;;;;;;;;;22.58;50.87;98558.72;1676104;84;20167;-72
2022/07/31 00:49:39;;;;;;;;;;;;;;;22.58;50.86;98567.67;1676566;84;20087;-72
2022/07/31 00:52:05;;;;;;;;;;;;;;;22.58;50.97;98566.85;1676553;84;20130;-73
2022/07/31 00:54:32;;;;;;;;;;;;;;;22.55;51.00;98569.56;1676502;84;22048;-72
2022/07/31 00:56:58;;;;;;;;;;;;;;;22.54;51.11;98555.75;1676506;84;20103;-73
2022/07/31 00:59:26;;;;;;;;;;;;;;;22.54;51.12;98558.47;1676581;84;20099;-72
2022/07/31 01:01:53;;;;;;;;;;;;;;;22.55;51.18;98556.58;1676505;84;20098;-73
2022/07/31 01:04:19;;;;;;;;;;;;;;;22.53;51.24;98556.83;1670073;84;20087;-72
2022/07/31 01:06:46;;;;;;;;;;;;;;;22.52;51.34;98553.86;1676388;84;21939;-73
2022/07/31 01:09:17;;;;;;;;;;;;;;;22.52;51.31;98546.27;1676520;84;20147;-72
2022/07/31 01:12:11;;;;;;;;;;;;;;;22.53;51.38;98547.34;1676018;84;20098;-72
2022/07/31 01:14:41;;;;;;;;;;;;;;;22.52;51.43;98548.44;1676574;84;20139;-73
2022/07/31 01:17:07;;;;;;;;;;;;;;;22.52;51.51;98550.33;1675993;84;20133;-72
2022/07/31 01:19:39;;;;;;;;;;;;;;;22.49;51.60;98560.35;1676129;84;21069;-72
2022/07/31 01:22:29;;;;;;;;;;;;;;;22.47;51.69;98557.92;1676569;84;20198;-72
2022/07/31 01:25:08;;;;;;;;;;;;;;;22.48;51.77;98558.71;1676610;84;20428;-72
2022/07/31 01:28:07;;;;;;;;;;;;;;;22.46;51.85;98554.11;1674950;84;20111;-71
2022/07/31 01:30:36;;;;;;;;;;;;;;;22.49;51.85;98560.35;1676446;84;20139;-72
2022/07/31 01:33:05;;;;;;;;;;;;;;;22.48;51.93;98557.36;1660897;85;21148;-72
2022/07/31 01:35:34;;;;;;;;;;;;;;;22.50;51.98;98552.51;1676296;84;20445;-72
2022/07/31 01:38:07;;;;;;;;;;;;;;;22.50;52.07;98551.94;1676552;84;20139;-72
2022/07/31 01:40:37;;;;;;;;;;;;;;;22.52;52.07;98551.69;1661225;84;20115;-72
2022/07/31 01:43:07;;;;;;;;;;;;;;;22.54;52.13;98552.22;1660909;85;20440;-72
2022/07/31 01:45:34;;;;;;;;;;;;;;;22.55;52.09;98560.64;1676282;84;21159;-72
2022/07/31 01:48:00;;;;;;;;;;;;;;;22.59;52.06;98558.47;1676041;84;20142;-72
2022/07/31 01:50:29;;;;;;;;;;;;;;;22.62;52.11;98559.83;1676436;85;20425;-72
2022/07/31 01:52:56;;;;;;;;;;;;;;;22.60;52.21;98553.30;1676605;84;20151;-72
2022/07/31 01:55:22;;;;;;;;;;;;;;;22.60;52.25;98556.01;1676765;84;20087;-72
2022/07/31 01:57:49;;;;;;;;;;;;;;;22.61;52.25;98557.65;1676705;84;21103;-72
2022/07/31 02:00:17;;;;;;;;;;;;;;;22.63;52.29;98558.78;1676754;84;20189;-72
2022/07/31 02:02:44;;;;;;;;;;;;;;;22.67;52.27;98568.81;1676685;84;20115;-72
2022/07/31 02:05:10;;;;;;;;;;;;;;;22.69;52.17;98557.15;1676778;84;20126;-72
2022/07/31 02:07:40;;;;;;;;;;;;;;;22.73;52.08;98562.86;1676716;84;20186;-72
2022/07/31 02:10:10;;;;;;;;;;;;;;;22.75;52.04;98567.45;1676813;84;21821;-72
2022/07/31 02:12:37;;;;;;;;;;;;;;;22.78;51.99;98566.10;1676740;84;20433;-72
2022/07/31 02:15:05;;;;;;;;;;;;;;;22.79;52.02;98554.97;1676656;84;20175;-72
2022/07/31 02:17:33;;;;;;;;;;;;;;;22.81;52.05;98560.96;1675718;84;20728;-72
2022/07/31 02:20:09;;;;;;;;;;;;;;;22.80;52.14;98553.91;1645154;84;20098;-72
2022/07/31 02:22:35;;;;;;;;;;;;;;;22.79;52.24;98556.33;1676588;84;21155;-72
2022/07/31 02:25:03;;;;;;;;;;;;;;;22.76;52.48;98556.86;1676625;84;20127;-72
2022/07/31 02:27:29;;;;;;;;;;;;;;;22.74;52.57;98550.38;1670366;84;20135;-72
2022/07/31 02:29:57;;;;;;;;;;;;;;;22.72;52.68;98557.15;1662288;85;20487;-72
2022/07/31 02:32:24;;;;;;;;;;;;;;;22.72;52.89;98557.15;1653997;85;20113;-72
2022/07/31 02:34:52;;;;;;;;;;;;;;;22.71;52.98;98556.33;1654047;85;21171;-72
2022/07/31 02:37:19;;;;;;;;;;;;;;;22.69;53.39;98565.81;1653936;85;20097;-72
2022/07/31 02:39:46;;;;;;;;;;;;;;;22.65;53.61;98563.39;1654113;85;20088;-72
2022/07/31 02:42:13;;;;;;;;;;;;;;;22.63;53.93;98568.27;1654113;85;20177;-72
2022/07/31 02:44:39;;;;;;;;;;;;;;;22.60;55.15;98566.85;1650030;85;20118;-73
2022/07/31 02:47:06;;;;;;;;;;;;;;;22.57;56.41;98570.13;1653447;85;21606;-72
2022/07/31 02:49:32;;;;;;;;;;;;;;;22.50;57.29;98564.70;1653996;85;20114;-73
2022/07/31 02:51:59;;;;;;;;;;;;;;;22.41;58.46;98579.31;1653972;85;20443;-72
2022/07/31 02:54:25;;;;;;;;;;;;;;;22.33;59.38;98565.47;1653957;85;20160;-73
2022/07/31 02:56:52;;;;;;;;;;;;;;;22.29;60.32;98561.68;1654096;85;20093;-72
2022/07/31 02:59:20;;;;;;;;;;;;;;;22.21;61.10;98556.24;1654020;85;21599;-73
2022/07/31 03:01:48;;;;;;;;;;;;;;;22.10;61.69;98563.52;1654522;85;20105;-73
2022/07/31 03:04:15;;;;;;;;;;;;;;;22.05;62.23;98558.63;1654006;85;20097;-72
2022/07/31 03:06:43;;;;;;;;;;;;;;;21.96;63.12;98554.27;1653891;85;20093;-72
2022/07/31 03:09:09;;;;;;;;;;;;;;;21.86;63.93;98552.87;1654003;85;20104;-72
2022/07/31 03:11:37;;;;;;;;;;;;;;;21.78;64.65;98554.70;1653920;85;21174;-72
2022/07/31 03:14:03;;;;;;;;;;;;;;;21.74;64.89;98564.45;1654621;85;20089;-72
2022/07/31 03:16:29;;;;;;;;;;;;;;;21.69;65.61;98566.30;1654318;85;20121;-73
2022/07/31 03:18:56;;;;;;;;;;;;;;;21.64;65.80;98574.41;1653463;85;20392;-72
2022/07/31 03:21:23;;;;;;;;;;;;;;;21.62;66.12;98579.23;1654114;85;20407;-73
2022/07/31 03:23:49;;;;;;;;;;;;;;;21.59;66.36;98584.64;1653968;85;21218;-73
2022/07/31 03:26:18;;;;;;;;;;;;;;;21.59;66.72;98592.76;1654313;84;20436;-73
2022/07/31 03:28:44;;;;;;;;;;;;;;;21.58;67.33;98581.68;1654204;85;20109;-71
2022/07/31 03:31:10;;;;;;;;;;;;;;;21.58;67.58;98594.39;1676593;84;20134;-72
2022/07/31 03:33:37;;;;;;;;;;;;;;;21.56;68.00;98586.55;1676588;84;20123;-72
2022/07/31 03:36:04;;;;;;;;;;;;;;;21.55;68.47;98591.67;1676641;84;21871;-72
2022/07/31 03:38:30;;;;;;;;;;;;;;;21.56;68.93;98583.84;1676524;84;20432;-72
2022/07/31 03:40:58;;;;;;;;;;;;;;;21.52;69.80;98586.24;1676565;84;20103;-71
2022/07/31 03:43:24;;;;;;;;;;;;;;;21.41;71.34;98614.30;1676689;84;20098;-72
2022/07/31 03:45:50;;;;;;;;;;;;;;;21.29;72.25;98598.00;1676577;84;20219;-71
2022/07/31 03:48:17;;;;;;;;;;;;;;;21.19;73.09;98606.86;1675939;84;21384;-71
2022/07/31 03:50:43;;;;;;;;;;;;;;;21.06;75.07;98595.63;1676597;84;20129;-71
2022/07/31 03:53:09;;;;;;;;;;;;;;;20.84;76.17;98599.24;1676576;84;20123;-71
2022/07/31 03:55:38;;;;;;;;;;;;;;;20.66;77.61;98595.56;1670237;84;20616;-72
2022/07/31 03:58:05;;;;;;;;;;;;;;;20.49;79.12;98606.20;1676692;84;20127;-72
2022/07/31 04:00:32;;;;;;;;;;;;;;;20.41;80.37;98603.43;1676594;84;21141;-72
2022/07/31 04:03:01;;;;;;;;;;;;;;;20.35;81.18;98612.53;1676504;84;20473;-72
2022/07/31 04:05:32;;;;;;;;;;;;;;;20.34;81.84;98610.89;1670187;84;20444;-71
2022/07/31 04:08:00;;;;;;;;;;;;;;;20.36;81.73;98602.55;1676527;84;20687;-72
2022/07/31 04:10:26;;;;;;;;;;;;;;;20.41;81.80;98604.78;1676600;84;20148;-71
2022/07/31 04:12:53;;;;;;;;;;;;;;;20.43;81.81;98603.98;1661094;84;21179;-72
2022/07/31 04:15:19;;;;;;;;;;;;;;;20.46;81.83;98594.02;1676664;84;20102;-71
2022/07/31 04:17:47;;;;;;;;;;;;;;;20.46;82.15;98598.61;1675532;84;20087;-71
2022/07/31 04:20:15;;;;;;;;;;;;;;;20.47;82.22;98596.16;1657466;84;20150;-71
2022/07/31 04:22:42;;;;;;;;;;;;;;;20.42;82.50;98605.05;1676527;84;20095;-72
2022/07/31 04:25:10;;;;;;;;;;;;;;;20.43;82.52;98592.36;1675761;84;22241;-71
2022/07/31 04:27:47;;;;;;;;;;;;;;;20.42;82.59;98603.69;1674813;84;20128;-71
2022/07/31 04:30:13;;;;;;;;;;;;;;;20.42;83.08;98594.77;1664702;84;20104;-71
2022/07/31 04:32:41;;;;;;;;;;;;;;;20.40;83.18;98590.98;1699331;83;20146;-71
2022/07/31 04:35:09;;;;;;;;;;;;;;;20.37;83.84;98609.05;1682229;84;20088;-72
2022/07/31 04:37:35;;;;;;;;;;;;;;;20.29;85.03;98602.73;1682236;84;21281;-71
2022/07/31 04:40:02;;;;;;;;;;;;;;;20.11;86.06;98594.94;1682189;84;20147;-72
2022/07/31 04:42:29;;;;;;;;;;;;;;;20.00;86.94;98598.05;1696886;83;20086;-71
2022/07/31 04:44:56;;;;;;;;;;;;;;;19.94;87.45;98595.56;1674546;85;20086;-72
2022/07/31 04:47:22;;;;;;;;;;;;;;;19.93;87.62;98603.36;1698711;83;20124;-71
2022/07/31 04:49:50;;;;;;;;;;;;;;;19.94;87.57;98597.73;1682299;84;21154;-71
2022/07/31 04:52:17;;;;;;;;;;;;;;;19.96;87.34;98590.20;1699188;83;20103;-71
2022/07/31 04:54:45;;;;;;;;;;;;;;;19.99;86.98;98596.44;1663519;84;20156;-72
2022/07/31 04:57:13;;;;;;;;;;;;;;;20.02;86.80;98595.12;1699386;83;20643;-71
2022/07/31 04:59:40;;;;;;;;;;;;;;;20.06;86.33;98596.23;1682109;84;20442;-71
2022/07/31 05:02:06;;;;;;;;;;;;;;;20.09;86.03;98600.61;1682228;84;21158;-71
2022/07/31 05:04:32;;;;;;;;;;;;;;;20.11;85.75;98593.59;1675322;83;20115;-71
2022/07/31 05:06:58;;;;;;;;;;;;;;;20.12;85.51;98592.01;1682213;84;20130;-71
2022/07/31 05:09:28;;;;;;;;;;;;;;;20.12;85.52;98587.14;1682272;84;20137;-70
2022/07/31 05:11:55;;;;;;;;;;;;;;;20.10;85.53;98594.68;1699288;83;20079;-71
2022/07/31 05:14:22;;;;;;;;;;;;;;;20.09;85.44;98591.69;1682108;84;21171;-71
2022/07/31 05:16:48;;;;;;;;;;;;;;;20.09;85.44;98601.14;1681639;84;20133;-71
2022/07/31 05:19:16;;;;;;;;;;;;;;;20.09;85.19;98593.86;1681607;84;20164;-71
2022/07/31 05:21:48;;;;;;;;;;;;;;;20.09;85.03;98594.39;1682180;84;20661;-71
2022/07/31 05:24:16;;;;;;;;;;;;;;;20.09;84.86;98598.44;1671421;84;20096;-71
2022/07/31 05:26:47;;;;;;;;;;;;;;;20.07;84.84;98598.70;1699067;83;21169;-71
2022/07/31 05:29:14;;;;;;;;;;;;;;;20.08;84.71;98596.80;1682059;84;20099;-71
2022/07/31 05:31:43;;;;;;;;;;;;;;;20.08;84.52;98603.55;1698723;83;20104;-71
2022/07/31 05:34:09;;;;;;;;;;;;;;;20.08;84.46;98601.66;1698701;83;20123;-71
2022/07/31 05:36:35;;;;;;;;;;;;;;;20.06;83.88;98601.11;1698840;83;20450;-71
2022/07/31 05:39:01;;;;;;;;;;;;;;;20.07;83.79;98603.28;1698854;83;21250;-71
2022/07/31 05:41:42;;;;;;;;;;;;;;;20.08;83.66;98607.59;1698719;83;20111;-71
2022/07/31 05:44:28;;;;;;;;;;;;;;;20.06;83.10;98600.28;1695095;83;20103;-71
2022/07/31 05:46:55;;;;;;;;;;;;;;;20.06;82.84;98603.81;1678282;84;20091;-70
2022/07/31 05:49:22;;;;;;;;;;;;;;;20.07;82.53;98612.73;1678460;84;20483;-70
2022/07/31 05:51:53;;;;;;;;;;;;;;;20.06;81.78;98612.44;1678819;84;21309;-71
2022/07/31 05:54:20;;;;;;;;;;;;;;;20.05;81.50;98615.66;1678602;84;20505;-71
2022/07/31 05:57:06;;;;;;;;;;;;;;;20.04;81.14;98608.65;1631574;86;20191;-71
2022/07/31 05:59:34;;;;;;;;;;;;;;;20.02;80.75;98605.36;1626050;86;20112;-71
2022/07/31 06:02:00;;;;;;;;;;;;;;;20.04;80.82;98611.88;1659516;84;20471;-71
2022/07/31 06:04:27;;;;;;;;;;;;;;;20.08;80.72;98600.31;1698936;83;20540;-71
2022/07/31 06:06:54;;;;;;;;;;;;;;;20.11;80.77;98615.19;1678769;84;20123;-70
2022/07/31 06:09:21;;;;;;;;;;;;;;;20.12;80.76;98607.39;1665049;84;20122;-70
2022/07/31 06:11:47;;;;;;;;;;;;;;;20.13;80.70;98604.95;1678781;84;20095;-71
2022/07/31 06:14:14;;;;;;;;;;;;;;;20.14;80.68;98604.72;1678783;84;20123;-70
2022/07/31 06:17:05;;;;;;;;;;;;;;;20.19;80.68;98604.77;1625092;87;21177;-72
2022/07/31 06:19:33;;;;;;;;;;;;;;;20.24;80.26;98595.94;1625143;86;20088;-72
2022/07/31 06:21:59;;;;;;;;;;;;;;;20.32;80.17;98607.64;1644757;84;20186;-71
2022/07/31 06:24:28;;;;;;;;;;;;;;;20.38;79.87;98603.94;1681677;84;20662;-71
2022/07/31 06:26:57;;;;;;;;;;;;;;;20.45;79.57;98609.94;1681757;84;20086;-71
2022/07/31 06:29:23;;;;;;;;;;;;;;;20.50;79.04;98605.11;1681731;84;21239;-71
2022/07/31 06:31:50;;;;;;;;;;;;;;;20.53;78.61;98602.73;1656385;85;20555;-71
2022/07/31 06:34:16;;;;;;;;;;;;;;;20.56;78.25;98603.58;1653855;85;20125;-71
2022/07/31 06:36:43;;;;;;;;;;;;;;;20.60;78.04;98609.27;1653814;85;20089;-71
2022/07/31 06:39:11;;;;;;;;;;;;;;;20.67;78.28;98596.39;1654532;84;20128;-71
2022/07/31 06:41:52;;;;;;;;;;;;;;;20.76;78.27;98598.35;1656773;85;21065;-71
2022/07/31 06:44:30;;;;;;;;;;;;;;;20.89;77.97;98594.41;1654087;85;20109;-71
2022/07/31 06:47:16;;;;;;;;;;;;;;;20.99;77.43;98601.80;1653514;85;20427;-71
2022/07/31 06:49:53;;;;;;;;;;;;;;;21.06;77.26;98603.25;1654121;85;20097;-71
2022/07/31 06:52:21;;;;;;;;;;;;;;;21.18;77.42;98597.64;1654096;85;20176;-71
2022/07/31 06:54:48;;;;;;;;;;;;;;;21.37;77.15;98600.22;1654073;85;21528;-71
2022/07/31 06:57:15;;;;;;;;;;;;;;;21.53;76.31;98602.73;1653900;85;20105;-71
2022/07/31 06:59:42;;;;;;;;;;;;;;;21.67;75.80;98608.50;1653942;85;20105;-72
2022/07/31 07:02:08;;;;;;;;;;;;;;;21.81;75.84;98608.32;1653996;85;20145;-71
2022/07/31 07:04:34;;;;;;;;;;;;;;;21.95;75.14;98622.23;1654021;85;20129;-71
2022/07/31 07:07:01;;;;;;;;;;;;;;;22.01;75.04;98602.20;1654003;85;21578;-72
2022/07/31 07:09:28;;;;;;;;;;;;;;;22.13;75.24;98616.34;1654028;85;20171;-71
2022/07/31 07:11:55;;;;;;;;;;;;;;;22.23;74.49;98608.25;1653979;85;20456;-72
2022/07/31 07:14:21;;;;;;;;;;;;;;;22.30;73.89;98593.91;1653889;85;20164;-72
2022/07/31 07:16:47;;;;;;;;;;;;;;;22.32;74.12;98588.20;1653603;85;20124;-71
2022/07/31 07:19:14;;;;;;;;;;;;;;;22.33;74.19;98590.67;1653712;85;21177;-71
2022/07/31 07:21:42;;;;;;;;;;;;;;;22.39;74.21;98599.09;1654321;85;20152;-72
2022/07/31 07:24:08;;;;;;;;;;;;;;;22.41;74.07;98586.09;1654209;85;20118;-72
2022/07/31 07:26:48;;;;;;;;;;;;;;;22.46;73.99;98594.76;1654404;85;20097;-72
2022/07/31 07:29:15;;;;;;;;;;;;;;;22.53;74.07;98586.64;1653962;85;20433;-72
2022/07/31 07:31:41;;;;;;;;;;;;;;;22.58;73.46;98584.47;1670426;84;21284;-71
2022/07/31 07:34:08;;;;;;;;;;;;;;;22.53;73.66;98595.30;1676573;84;20087;-72
2022/07/31 07:36:35;;;;;;;;;;;;;;;22.47;73.93;98592.33;1676622;84;20111;-72
2022/07/31 07:39:03;;;;;;;;;;;;;;;22.45;74.19;98586.34;1676645;84;20577;-72
2022/07/31 07:41:31;;;;;;;;;;;;;;;22.43;74.37;98596.11;1676788;84;20179;-72
2022/07/31 07:43:58;;;;;;;;;;;;;;;22.40;74.62;98591.75;1677739;84;20830;-72
2022/07/31 07:46:26;;;;;;;;;;;;;;;22.39;74.93;98597.73;1686612;84;20091;-72
2022/07/31 07:48:57;;;;;;;;;;;;;;;22.42;75.01;98599.09;1676134;84;20124;-71
2022/07/31 07:51:37;;;;;;;;;;;;;;;22.46;74.78;98602.89;1675826;84;20115;-71
2022/07/31 07:54:11;;;;;;;;;;;;;;;22.43;75.11;98595.28;1674040;84;20175;-72
2022/07/31 07:56:56;;;;;;;;;;;;;;;22.44;75.45;98605.87;1676735;84;21260;-72
2022/07/31 07:59:25;;;;;;;;;;;;;;;22.52;75.57;98608.60;1676520;84;20150;-72
2022/07/31 08:02:12;;;;;;;;;;;;;;;22.62;74.92;98614.03;1627666;86;20224;-72
2022/07/31 08:04:39;;;;;;;;;;;;;;;22.69;74.94;98609.19;1630471;86;20433;-71
2022/07/31 08:07:06;;;;;;;;;;;;;;;22.67;74.95;98616.78;1641016;85;20083;-71
2022/07/31 08:09:36;;;;;;;;;;;;;;;22.70;75.00;98618.42;1676614;84;22044;-71
2022/07/31 08:12:20;;;;;;;;;;;;;;;22.76;75.16;98614.37;1676679;84;20098;-73
2022/07/31 08:14:48;;;;;;;;;;;;;;;22.74;75.04;98615.97;1643533;84;20079;-72
2022/07/31 08:17:33;;;;;;;;;;;;;;;22.67;74.75;98623.56;1675829;84;20087;-72
2022/07/31 08:20:00;;;;;;;;;;;;;;;22.59;75.17;98624.05;1676489;84;20099;-72
2022/07/31 08:22:26;;;;;;;;;;;;;;;22.51;75.00;98618.62;1684872;84;20813;-72
2022/07/31 08:24:52;;;;;;;;;;;;;;;22.47;75.45;98622.14;1679708;84;20086;-72
2022/07/31 08:27:26;;;;;;;;;;;;;;;22.49;75.89;98620.80;1676626;84;20087;-72
2022/07/31 08:29:55;;;;;;;;;;;;;;;22.59;75.62;98612.67;1676599;84;20731;-72
2022/07/31 08:32:25;;;;;;;;;;;;;;;22.70;74.79;98613.54;1676478;84;20488;-72
2022/07/31 08:34:56;;;;;;;;;;;;;;;22.76;74.80;98624.64;1665805;84;21807;-72
2022/07/31 08:37:23;;;;;;;;;;;;;;;22.77;74.56;98601.88;1676425;84;20421;-72
2022/07/31 08:39:49;;;;;;;;;;;;;;;22.80;74.84;98606.77;1676598;84;20075;-72
2022/07/31 08:42:16;;;;;;;;;;;;;;;22.81;74.80;98610.30;1676508;84;20436;-72
2022/07/31 08:44:43;;;;;;;;;;;;;;;22.77;74.64;98613.27;1676538;84;20107;-72
2022/07/31 08:47:11;;;;;;;;;;;;;;;22.64;75.20;98618.67;1676018;84;21558;-72
2022/07/31 08:49:42;;;;;;;;;;;;;;;22.54;75.42;98614.02;1657435;84;20112;-72
2022/07/31 08:52:09;;;;;;;;;;;;;;;22.52;75.63;98612.66;1676583;84;20139;-71
2022/07/31 08:54:44;;;;;;;;;;;;;;;22.54;75.70;98617.27;1655781;84;20133;-73
2022/07/31 08:57:11;;;;;;;;;;;;;;;22.59;75.58;98615.92;1676538;84;20186;-72
2022/07/31 08:59:42;;;;;;;;;;;;;;;22.53;75.51;98611.56;1676563;84;21181;-72
2022/07/31 09:02:07;;;;;;;;;;;;;;;22.53;75.62;98608.86;1676172;84;20406;-72
2022/07/31 09:04:35;;;;;;;;;;;;;;;22.60;75.88;98616.21;1676608;84;20131;-72
2022/07/31 09:07:01;;;;;;;;;;;;;;;22.68;75.85;98619.78;1676531;84;20574;-73
2022/07/31 09:09:28;;;;;;;;;;;;;;;22.68;75.68;98621.92;1676595;84;20223;-72
2022/07/31 09:11:55;;;;;;;;;;;;;;;22.67;75.77;98612.19;1676647;84;21160;-72
2022/07/31 09:14:31;;;;;;;;;;;;;;;22.64;76.04;98611.89;1673781;84;20098;-73
2022/07/31 09:16:57;;;;;;;;;;;;;;;22.60;76.60;98612.14;1676028;84;20095;-72
2022/07/31 09:19:26;;;;;;;;;;;;;;;22.61;76.51;98613.22;1676054;84;20115;-72
2022/07/31 09:21:53;;;;;;;;;;;;;;;22.65;76.37;98613.53;1676094;84;20127;-72
2022/07/31 09:24:28;;;;;;;;;;;;;;;22.61;76.34;98611.86;1676505;84;22124;-73
2022/07/31 09:27:06;;;;;;;;;;;;;;;22.66;76.18;98612.44;1676511;84;20099;-73
2022/07/31 09:29:35;;;;;;;;;;;;;;;22.67;76.58;98619.50;1676441;84;20452;-73
2022/07/31 09:32:14;;;;;;;;;;;;;;;22.68;76.82;98622.49;1662617;84;20136;-72
2022/07/31 09:34:43;;;;;;;;;;;;;;;22.62;77.28;98615.39;1643763;85;20105;-73
2022/07/31 09:37:12;;;;;;;;;;;;;;;22.60;77.95;98613.50;1654301;85;21185;-73
2022/07/31 09:39:57;;;;;;;;;;;;;;;22.62;78.29;98620.31;1653937;85;20143;-73
2022/07/31 09:42:38;;;;;;;;;;;;;;;22.58;78.29;98623.77;1621937;87;32590;-73
2022/07/31 09:45:19;;;;;;;;;;;;;;;22.53;78.65;98614.27;1653043;85;20101;-73
2022/07/31 09:47:46;;;;;;;;;;;;;;;22.49;79.33;98630.28;1652331;85;20093;-72
2022/07/31 09:50:12;;;;;;;;;;;;;;;22.47;79.54;98612.13;1653876;85;21779;-72
2022/07/31 09:52:39;;;;;;;;;;;;;;;22.49;79.84;98617.27;1653870;85;20175;-72
2022/07/31 09:55:14;;;;;;;;;;;;;;;22.51;79.90;98613.20;1653917;85;20129;-72
2022/07/31 09:57:57;;;;;;;;;;;;;;;22.52;80.00;98618.09;1653954;85;20126;-73
2022/07/31 10:00:24;;;;;;;;;;;;;;;22.54;79.79;98618.62;1654046;85;20093;-72
2022/07/31 10:02:55;;;;;;;;;;;;;;;22.55;79.48;98614.28;1653825;85;21145;-72
2022/07/31 10:05:23;;;;;;;;;;;;;;;22.53;79.75;98613.73;1653836;85;20140;-72
2022/07/31 10:07:49;;;;;;;;;;;;;;;22.52;80.10;98618.91;1653854;85;20129;-73
2022/07/31 10:10:19;;;;;;;;;;;;;;;22.42;80.59;98630.26;1654225;84;20460;-72
2022/07/31 10:12:54;;;;;;;;;;;;;;;22.30;80.26;98620.17;1650621;85;20439;-73
2022/07/31 10:15:20;;;;;;;;;;;;;;;22.16;80.60;98623.92;1654010;85;21165;-73
2022/07/31 10:17:49;;;;;;;;;;;;;;;22.07;80.81;98633.64;1655197;84;20601;-73
2022/07/31 10:20:20;;;;;;;;;;;;;;;22.03;81.30;98628.50;1632652;85;20089;-72
2022/07/31 10:22:55;;;;;;;;;;;;;;;22.05;81.28;98632.57;1656039;84;20652;-72
2022/07/31 10:25:27;;;;;;;;;;;;;;;22.06;80.87;98637.42;1671110;84;20109;-72
2022/07/31 10:27:55;;;;;;;;;;;;;;;22.14;80.75;98628.26;1654042;85;21154;-72
2022/07/31 10:30:22;;;;;;;;;;;;;;;22.23;80.70;98638.59;1653927;85;20191;-73
2022/07/31 10:32:51;;;;;;;;;;;;;;;22.29;79.10;98622.63;1654450;84;20097;-72
2022/07/31 10:35:28;;;;;;;;;;;;;;;22.27;78.13;98624.23;1653963;85;20450;-73
2022/07/31 10:38:23;;;;;;;;;;;;;;;22.35;77.98;98623.72;1656555;85;20435;-73
2022/07/31 10:41:04;;;;;;;;;;;;;;;22.40;77.50;98622.37;1654133;85;21250;-72
2022/07/31 10:43:40;;;;;;;;;;;;;;;22.43;75.15;98627.27;1653968;85;21067;-72
2022/07/31 10:46:08;;;;;;;;;;;;;;;22.44;73.95;98628.09;1654631;84;20439;-72
2022/07/31 10:48:52;;;;;;;;;;;;;;;22.48;73.07;98634.59;1654030;85;20704;-73
2022/07/31 10:51:48;;;;;;;;;;;;;;;22.59;72.75;98633.55;1616817;87;20114;-72
2022/07/31 10:54:44;;;;;;;;;;;;;;;22.69;72.56;98628.17;1654073;85;21113;-72
2022/07/31 10:57:31;;;;;;;;;;;;;;;22.77;70.97;98634.95;1653989;85;20431;-72
2022/07/31 11:00:17;;;;;;;;;;;;;;;22.76;69.46;98631.42;1647740;85;20085;-72
2022/07/31 11:02:54;;;;;;;;;;;;;;;22.70;68.88;98636.05;1650013;85;20226;-72
2022/07/31 11:05:23;;;;;;;;;;;;;;;22.59;67.97;98653.87;1654755;84;20180;-71
2022/07/31 11:08:04;;;;;;;;;;;;;;;22.52;68.13;98646.01;1650193;85;21273;-72
2022/07/31 11:10:52;;;;;;;;;;;;;;;22.49;68.66;98645.18;1654056;85;20089;-71
2022/07/31 11:13:49;;;;;;;;;;;;;;;22.45;68.63;98648.67;1654079;85;20154;-71
2022/07/31 11:16:18;;;;;;;;;;;;;;;22.30;69.78;98644.03;1655948;84;20194;-72
2022/07/31 11:19:05;;;;;;;;;;;;;;;21.99;71.37;98642.27;1653429;85;20144;-71
2022/07/31 11:21:39;;;;;;;;;;;;;;;21.77;72.16;98635.63;1654061;85;21169;-71
2022/07/31 11:24:20;;;;;;;;;;;;;;;21.68;72.73;98632.33;1653989;85;20451;-73
2022/07/31 11:26:52;;;;;;;;;;;;;;;21.72;73.05;98629.39;1654176;85;20121;-72
2022/07/31 11:29:36;;;;;;;;;;;;;;;21.73;73.26;98627.77;1636397;85;20121;-72
2022/07/31 11:32:12;;;;;;;;;;;;;;;21.83;73.48;98640.00;1661712;84;20167;-73
2022/07/31 11:34:48;;;;;;;;;;;;;;;21.89;73.41;98636.28;1676613;84;21158;-71
2022/07/31 11:37:19;;;;;;;;;;;;;;;21.90;73.55;98632.48;1676523;84;20087;-71
2022/07/31 11:39:46;;;;;;;;;;;;;;;21.89;73.66;98634.92;1676673;84;20444;-71
2022/07/31 11:42:13;;;;;;;;;;;;;;;21.93;73.78;98653.61;1676572;84;20176;-71
2022/07/31 11:44:39;;;;;;;;;;;;;;;21.97;73.66;98633.61;1676840;84;20091;-72
2022/07/31 11:47:06;;;;;;;;;;;;;;;21.97;73.79;98636.31;1676073;84;21159;-72
2022/07/31 11:49:34;;;;;;;;;;;;;;;21.96;74.14;98634.14;1676455;84;20118;-71
2022/07/31 11:52:06;;;;;;;;;;;;;;;21.97;74.20;98635.78;1676697;84;20111;-72
2022/07/31 11:54:33;;;;;;;;;;;;;;;21.95;74.13;98645.25;1676641;84;20608;-71
2022/07/31 11:56:59;;;;;;;;;;;;;;;21.94;74.08;98633.59;1676641;84;20444;-71
2022/07/31 11:59:31;;;;;;;;;;;;;;;21.96;74.28;98626.55;1676548;84;21637;-71
2022/07/31 12:02:11;;;;;;;;;;;;;;;21.99;74.36;98625.49;1676618;84;20143;-71
2022/07/31 12:04:38;;;;;;;;;;;;;;;22.05;74.18;98634.45;1676633;84;20123;-72
2022/07/31 12:07:07;;;;;;;;;;;;;;;22.07;73.75;98620.92;1676706;84;20685;-72
2022/07/31 12:09:35;;;;;;;;;;;;;;;22.14;73.36;98626.91;1676581;84;20949;-72
2022/07/31 12:12:03;;;;;;;;;;;;;;;22.17;72.94;98613.37;1676565;84;21160;-72
2022/07/31 12:14:36;;;;;;;;;;;;;;;22.20;72.79;98610.13;1676566;84;20095;-73
2022/07/31 12:17:04;;;;;;;;;;;;;;;22.27;72.80;98612.05;1676144;84;20087;-72
2022/07/31 12:19:32;;;;;;;;;;;;;;;22.39;72.66;98605.05;1676263;84;20119;-73
2022/07/31 12:21:59;;;;;;;;;;;;;;;22.51;72.37;98611.84;1676594;84;20127;-72
2022/07/31 12:24:25;;;;;;;;;;;;;;;22.62;71.72;98603.20;1676595;84;21145;-73
2022/07/31 12:26:53;;;;;;;;;;;;;;;22.69;71.23;98597.81;1676440;84;20452;-73
2022/07/31 12:29:31;;;;;;;;;;;;;;;22.78;71.33;98594.03;1676638;84;20155;-72
2022/07/31 12:31:58;;;;;;;;;;;;;;;22.88;70.39;98602.17;1676414;84;20169;-72
2022/07/31 12:34:33;;;;;;;;;;;;;;;22.92;69.91;98601.89;1676492;84;20420;-72
2022/07/31 12:37:05;;;;;;;;;;;;;;;23.01;70.26;98599.45;1676535;84;21105;-73
2022/07/31 12:39:37;;;;;;;;;;;;;;;23.17;69.44;98589.70;1658427;84;20146;-72
2022/07/31 12:42:04;;;;;;;;;;;;;;;23.32;68.65;98591.03;1676404;84;20099;-70
2022/07/31 12:44:30;;;;;;;;;;;;;;;23.35;68.54;98599.16;1676664;84;20715;-73
2022/07/31 12:46:56;;;;;;;;;;;;;;;23.34;67.92;98605.66;1676165;84;20075;-71
2022/07/31 12:49:24;;;;;;;;;;;;;;;23.34;67.48;98605.66;1676373;84;21121;-72
2022/07/31 12:51:50;;;;;;;;;;;;;;;23.30;67.34;98591.85;1676608;84;20099;-72
2022/07/31 12:54:16;;;;;;;;;;;;;;;23.30;67.77;98592.39;1676602;84;20087;-72
2022/07/31 12:56:43;;;;;;;;;;;;;;;23.30;67.72;98592.39;1676615;84;20740;-72
2022/07/31 12:59:09;;;;;;;;;;;;;;;23.34;67.87;98589.38;1676501;84;20143;-72
2022/07/31 13:01:36;;;;;;;;;;;;;;;23.39;67.66;98594.05;1676645;84;21248;-72